Overton, Nevada Weather observations

Data are for observation ending at time listed.
 Day   Time    Ave.   Ave.  Ave.  Vector   Max.   Stn.    Total    Solar   Ave.  
  of    of     Air    Rel.  Wind   Wind    Wind   Baro.  Precip.   Rad.    Soil  
Year   Day     Temp.  Hum.  Speed  Dir.    Gust   Pres.                    Temp. 
2026   (PST)    F      %     mph   deg.    mph     mb.     in.     W/m2     F   
------------------------------------------------------------------------------
 129   15:40  102.8     6    2.7     6      5.2   962.5    0.00     318    103.0
 129   15:50  102.8     6    4.7    62      7.8   962.4    0.00     465    103.0
 129   16:00  102.3     6    4.2    44     10.6   962.3    0.00     444    102.6
 129   16:10  102.5     6    4.4    19      8.6   962.2    0.00     265    102.5
 129   16:20  102.4     6    4.1   151      9.0   962.1    0.00     388    102.5
 129   16:30  101.6     6    5.6   186     10.0   962.0    0.00     354    102.6
 129   16:40  101.8     6    5.1   172     10.4   961.9    0.00     319    102.5
 129   16:50  101.4     6    5.8   146     11.1   961.8    0.00     166    102.1
 129   17:00  102.0     6    2.3    92      6.7   961.7    0.00     255    101.4
 129   17:10  102.5     6    4.2   228     10.9   961.6    0.00     221    101.3
 129   17:20  101.7     6    5.6   233     10.4   961.6    0.00     148    101.0
 129   17:30  101.4     6    4.8   219      8.3   961.5    0.00     152    100.6
 129   17:40  101.5     6    3.1   226      6.2   961.3    0.00     124    100.1
 129   17:50  100.6     7    3.5   182      8.6   961.2    0.00      42    99.4
 129   18:00  100.1     7    3.7   186      5.8   961.2    0.00      36    98.9
 129   18:10   99.4     7    2.1   187      4.5   961.1    0.00      22    98.1
 129   18:20   98.7     8    1.4   130      3.2   961.0    0.00      14    97.3
 129   18:30   96.1     9    1.5   107      3.4   960.9    0.00       9    96.3
 129   18:40   93.1    11    2.1    81      3.7   960.8    0.00       5    95.3
 129   18:50   91.1    11    1.9    98      3.2   960.7    0.00       2    94.5
 129   19:00   90.6    12    0.7   108      2.6   960.6    0.00       0    93.7
 129   19:10   90.6    11    1.2   116      4.2   960.6    0.00       0    93.3
 129   19:20   89.7    11    0.6   332      1.5   960.6    0.00       0    92.3
 129   19:30   87.6    12    1.0   322      1.7   960.7    0.00       0    91.5
 129   19:40   87.3    13    0.1   186      0.8   960.6    0.00       0    91.1
 129   19:50   84.5    14    1.5   327      2.8   960.6    0.00       0    89.7
 129   20:00   82.5    16    1.7   335      3.3   960.8    0.00       0    89.1
 129   20:10   81.9    15    2.2   307      4.2   960.8    0.00       0    89.0
 129   20:20   83.3    13    3.0   322      4.9   960.9    0.00       0    88.7
 129   20:30   84.5    12    2.8   274      4.8   961.1    0.00       0    89.0
 129   20:40   84.4    13    2.2   273      4.7   961.2    0.00       0    88.4
 129   20:50   85.1    11    2.1   312      4.2   961.2    0.00       0    88.4
 129   21:00   87.0    10    5.3     3     11.1   961.3    0.00       0    88.8
 129   21:10   89.3     9    8.5     6     13.3   961.4    0.00       0    89.5
 129   21:20   89.8     9    9.0     7     13.4   961.6    0.00       0    89.6
 129   21:30   89.7     9    8.6     8     11.8   961.8    0.00       0    89.5
 129   21:40   89.0     9    8.7     8     14.9   961.9    0.00       0    89.1
 129   21:50   88.8     9    8.1     8     12.9   962.1    0.00       0    88.9
 129   22:00   88.7     9    8.0   360     11.8   962.1    0.00       0    88.7
 129   22:10   88.4     9    7.1     3     11.6   962.3    0.00       0    88.4
 129   22:20   87.8     9    8.1     6     12.5   962.4    0.00       0    88.1
 129   22:30   87.2    10    6.8     5     11.5   962.4    0.00       0    87.7
 129   22:40   86.3    10    5.3     3     10.4   962.5    0.00       0    87.1
 129   22:50   86.2    10    4.4   356     10.1   962.6    0.00       0    86.9
 129   23:00   86.0    10    3.2   309      6.4   962.8    0.00       0    86.4
 129   23:10   86.1    10    2.2   262      4.0   962.9    0.00       0    86.2
 129   23:20   85.4    10    2.4   257      9.0   962.9    0.00       0    85.6
 129   23:30   84.8    10    3.0   243      5.6   962.9    0.00       0    85.2
 129   23:40   85.4     9    3.2   245      6.6   962.9    0.00       0    85.3
 129   23:50   85.5     9    2.4   251      5.0   963.0    0.00       0    85.0
 130    0:00   83.8    10    2.0   298      4.4   963.1    0.00       0    84.1
 130    0:10   82.7    10    3.0   313      5.0   963.1    0.00       0    83.9
 130    0:20   81.8    10    3.8   328      7.2   963.1    0.00       0    83.4
 130    0:30   82.0    10    3.2   336      6.5   963.1    0.00       0    83.5
 130    0:40   83.3     9    4.2   296     10.4   963.2    0.00       0    83.9
 130    0:50   86.1     8    5.1   286     12.6   963.4    0.00       0    84.5
 130    1:00   85.7     8    6.8   326     11.9   963.6    0.00       0    84.4
 130    1:10   83.9     9    7.4   357     11.9   963.8    0.00       0    83.8
 130    1:20   82.8     9    8.3     0     11.5   964.0    0.00       0    83.5
 130    1:30   84.0     8    9.7     1     14.5   964.0    0.00       0    83.9
 130    1:40   84.7     8    7.7   347     15.8   964.2    0.00       0    84.0
 130    1:50   83.0     8    4.8   334      7.7   964.4    0.00       0    83.0
 130    2:00   81.6     9    5.1   357      7.7   964.5    0.00       0    82.5
 130    2:10   81.6     9    3.3   350      5.3   964.5    0.00       0    82.0
 130    2:20   80.2     9    3.3   256      5.0   964.5    0.00       0    81.4
 130    2:30   78.9    10    3.6   335      6.3   964.4    0.00       0    80.7
 130    2:40   76.0    11    3.0    10      5.6   964.4    0.00       0    79.8
 130    2:50   76.2    10    2.5   282      3.9   964.5    0.00       0    79.8
 130    3:00   76.5    11    2.4   308      4.5   964.5    0.00       0    79.1
 130    3:10   71.7    14    3.5   348      5.3   964.5    0.00       0    77.7
 130    3:20   72.3    13    2.5   295      3.8   964.5    0.00       0    78.3
 130    3:30   73.8    12    2.4   302      4.0   964.5    0.00       0    77.8
 130    3:40   71.9    13    2.7     6      4.5   964.5    0.00       0    77.3
 130    3:50   73.0    12    1.3    79      3.1   964.5    0.00       0    77.6
 130    4:00   72.7    13    0.8    20      2.3   964.6    0.00       0    76.8
 130    4:10   68.8    16    2.9   340      4.2   964.6    0.00       0    75.5
 130    4:20   68.2    14    1.9   297      4.4   964.6    0.00       0    75.7
 130    4:30   70.2    13    1.7   236      2.9   964.6    0.00       1    76.1
 130    4:40   70.5    13    0.8    38      3.1   964.7    0.00       4    75.4
 130    4:50   66.8    16    1.7   328      3.4   964.8    0.00      10    74.7
 130    5:00   68.7    14    2.0   162      3.7   965.0    0.00      33    76.7
 130    5:10   70.1    15    0.8   303      2.2   965.1    0.00      62    77.9
 130    5:20   69.3    15    1.1   284      2.6   965.3    0.00      89    80.2
 130    5:30   72.5    13    1.4   282      4.2   965.6    0.00     119    82.6
 130    5:40   74.6    12    1.8   281      3.4   965.9    0.00     150    84.8
 130    5:50   76.3    13    0.5   285      2.2   966.3    0.00     181    85.6
 130    6:00   77.0    12    0.9   284      2.1   966.6    0.00     215    87.8
 130    6:10   79.2    14    0.0     0      0.0   966.9    0.00     251    88.2
 130    6:20   80.7    10    0.3   268      1.8   967.1    0.00     286    90.9
 130    6:30   81.4    10    0.8   295      2.4   967.4    0.00     322    91.5
 130    6:40   81.6    10    0.9   326      2.3   967.6    0.00     359    92.2
 130    6:50   82.6    10    2.1   327      3.6   967.9    0.00     395    93.8
 130    7:00   83.3     9    3.9   326      6.0   968.1    0.00     431    94.1
 130    7:10   84.1    10    4.8   336      6.6   968.3    0.00     466    95.1
 130    7:20   84.9     9    4.5   337      7.4   968.4    0.00     501    96.5
 130    7:30   85.8     8    4.8   337      8.1   968.4    0.00     533    98.0
 130    7:40   87.0     8    5.4   331      8.0   968.4    0.00     567    99.4
 130    7:50   87.9     7    6.4   323      9.1   968.5    0.00     601    100.8
 130    8:00   88.7     7    5.9   324     10.7   968.6    0.00     632    102.7
 130    8:10   89.7     7    5.2   330      7.4   968.7    0.00     663    104.1
 130    8:20   90.9     7    5.1     3     10.4   968.7    0.00     693    105.8
 130    8:30   92.2     7    8.8   353     16.1   968.7    0.00     723    105.5
 130    8:40   92.7     6   10.4   357     15.3   968.8    0.00     753    105.9
 130    8:50   93.4     6   10.0     1     14.8   968.9    0.00     780    106.5
 130    9:00   93.9     6    9.5     7     15.1   968.9    0.00     805    107.3
 130    9:10   94.5     6    9.9    11     14.2   969.0    0.00     829    107.6
 130    9:20   94.9     6    9.0   358     15.3   969.0    0.00     853    108.6
 130    9:30   95.4     6    7.8    10     13.5   969.2    0.00     874    110.0
 130    9:40   96.2     6    8.2     4     15.5   969.2    0.00     895    111.0
 130    9:50   96.0     6    7.2    10     11.2   969.2    0.00     913    112.2
 130   10:00   96.8     5    4.8    40     11.8   969.2    0.00     930    114.4
 130   10:10   97.0     5    4.9   332     10.4   969.2    0.00     946    113.8
 130   10:20   97.4     5    5.1   341     11.6   969.1    0.00     958    113.0
 130   10:30   97.8     5    5.5   353      9.2   969.1    0.00     970    112.6
 130   10:40   98.0     5    3.1   359      7.6   969.0    0.00     980    113.2
 130   10:50   98.6     5    3.8   348     10.5   968.8    0.00     987    113.3
 130   11:00   98.9     5    6.4   325     12.0   968.7    0.00     994    112.7
 130   11:10   98.9     5    3.8   301      8.9   968.6    0.00     998    114.6
 130   11:20   99.9     5    3.5   294      9.6   968.6    0.00    1001    116.3
 130   11:30   99.5     5    5.8   329     10.2   968.5    0.00    1001    113.8
 130   11:40   99.9     5    4.5   354      9.3   968.5    0.00    1000    113.6
 130   11:50  100.3     5    4.0   297      8.9   968.4    0.00     998    115.2
 130   12:00   99.9     5    6.6   237     13.0   968.3    0.00     995    116.6
 130   12:10   99.6     5    4.4   249      9.0   968.3    0.00     989    116.7
 130   12:20  100.4     5    5.0   345     10.1   968.2    0.00     982    113.5
 130   12:30  100.8     4    4.0    66      9.0   968.1    0.00     971    112.9
 130   12:40  100.5     5    4.1   227     11.1   968.0    0.00     960    113.2
 130   12:50  101.0     4    5.2   266     11.5   967.9    0.00     947    110.9
 130   13:00  100.5     5    4.2    32      8.8   967.8    0.00     933    109.7
 130   13:10  101.4     4    4.4    74      8.3   967.7    0.00     918    108.6
 130   13:20  100.9     5    4.7    87      9.9   967.6    0.00     902    107.8
 130   13:30  101.4     5    3.9   122      7.2   967.5    0.00     881    107.6
 130   13:40  103.4     4    1.5    73      4.7   967.4    0.00     862    106.7
 130   13:50  103.1     4    3.6   347      9.8   967.3    0.00     842    106.2
 130   14:00  102.4     4    3.7   336      6.8   967.3    0.00     818    105.9
 130   14:10  102.6     4    3.6   292      8.7   967.2    0.00     795    105.7
 130   14:20  103.1     4    3.8   261      6.8   967.0    0.00     771    105.9
 130   14:30  103.6     4    5.0    15     11.3   966.9    0.00     743    105.4
 130   14:40  103.3     4    3.5   234      7.5   966.7    0.00     716    105.6
 130   14:50  102.8     4    5.0   233      9.8   966.6    0.00     627    105.6
 130   15:00  103.0     4    4.3   315      8.6   966.5    0.00      81    105.0
 130   15:10  103.1     4    5.2   348     10.2   966.5    0.00     487    104.5
 130   15:20  103.3     4    2.5    17      5.4   966.4    0.00     381    103.9
 130   15:30  103.1     4    2.0    44      4.0   966.4    0.00     565    103.5

Return to Overton, Nevada graphs page.


Western Regional Climate Center,wrcc@dri.edu